Terminal Aerodrome Forecast
Issued by NWS

Home | Current Version | Previous Version | Text Only | Print | Product List | Glossary On
Versions: 1 2 3 4 5 6 7 8 9 10 11 12 13 14 15 16 17 18 19 20
000
FTUS44 KMOB 190500 RRA
TAFBFM
TAF
KBFM 190551Z 1906/2006 35004KT P6SM BKN045 OVC050
     FM191100 03007KT P6SM -RA BKN035
      TEMPO 1914/1918 3SM RA BR BKN015
     FM200000 06007KT 4SM -RA BR OVC025=

USA.gov is the U.S. government's official web portal to all federal, state and local government web resources and services.